Time,TemperatureF,DewpointF,PressureIn,WindDirection,WindDirectionDegrees,WindSpeedMPH,WindSpeedGustMPH,Humidity,HourlyPrecipIn,Conditions,Clouds,dailyrainin,SoftwareType,DateUTC
2013-05-04 00:09:00,34.7,33.0,29.88,NW,323,1.0,6.0,93,0.02,,,0.00,weatherlink.com 1.10,2013-05-04 05:09:00,
2013-05-04 00:24:00,34.3,33.0,29.88,NW,323,2.0,8.0,93,0.02,,,0.01,weatherlink.com 1.10,2013-05-04 05:24:00,
2013-05-04 00:39:00,34.0,33.0,29.87,WNW,290,0.0,9.0,94,0.01,,,0.01,weatherlink.com 1.10,2013-05-04 05:39:00,
2013-05-04 00:54:00,34.0,33.0,29.87,WNW,297,1.0,4.0,94,0.01,,,0.01,weatherlink.com 1.10,2013-05-04 05:54:00,
2013-05-04 01:09:00,34.1,33.0,29.86,WNW,303,1.0,4.0,94,0.01,,,0.01,weatherlink.com 1.10,2013-05-04 06:09:00,
2013-05-04 01:24:00,33.5,32.0,29.86,NNW,346,0.0,6.0,94,0.01,,,0.02,weatherlink.com 1.10,2013-05-04 06:24:00,
2013-05-04 01:39:00,33.2,32.0,29.86,NW,321,1.0,4.0,94,0.01,,,0.02,weatherlink.com 1.10,2013-05-04 06:39:00,
2013-05-04 01:54:00,33.2,32.0,29.85,West,271,0.0,1.0,94,0.01,,,0.02,weatherlink.com 1.10,2013-05-04 06:54:00,
2013-05-04 02:09:00,32.9,31.0,29.84,NW,307,1.0,6.0,94,0.01,,,0.02,weatherlink.com 1.10,2013-05-04 07:09:00,
2013-05-04 02:24:00,32.8,32.0,29.84,WSW,255,0.0,4.0,95,0.00,,,0.02,weatherlink.com 1.10,2013-05-04 07:24:00,
2013-05-04 02:40:00,32.8,32.0,29.83,WNW,300,0.0,3.0,95,0.00,,,0.02,weatherlink.com 1.10,2013-05-04 07:40:00,
2013-05-04 02:54:00,32.8,32.0,29.83,NW,318,0.0,1.0,95,0.00,,,0.02,weatherlink.com 1.10,2013-05-04 07:54:00,
2013-05-04 03:09:00,33.0,32.0,29.83,WNW,300,0.0,3.0,95,0.01,,,0.03,weatherlink.com 1.10,2013-05-04 08:09:00,
2013-05-04 03:24:00,33.3,32.0,29.83,NW,325,0.0,4.0,96,0.02,,,0.04,weatherlink.com 1.10,2013-05-04 08:24:00,
2013-05-04 03:39:00,33.6,33.0,29.82,WNW,295,2.0,6.0,96,0.03,,,0.05,weatherlink.com 1.10,2013-05-04 08:39:00,
2013-05-04 03:54:00,33.7,33.0,29.82,WNW,284,1.0,5.0,95,0.04,,,0.06,weatherlink.com 1.10,2013-05-04 08:54:00,
2013-05-04 04:09:00,34.0,33.0,29.82,WNW,297,0.0,4.0,96,0.03,,,0.06,weatherlink.com 1.10,2013-05-04 09:09:00,
2013-05-04 04:24:00,34.1,33.0,29.82,WNW,283,2.0,5.0,96,0.03,,,0.07,weatherlink.com 1.10,2013-05-04 09:24:00,
2013-05-04 04:39:00,34.2,33.0,29.82,NW,314,0.0,6.0,95,0.03,,,0.08,weatherlink.com 1.10,2013-05-04 09:39:00,
2013-05-04 04:54:00,34.4,33.0,29.81,NNW,330,2.0,7.0,95,0.02,,,0.08,weatherlink.com 1.10,2013-05-04 09:54:00,
2013-05-04 05:09:00,34.5,33.0,29.81,NW,321,0.0,6.0,95,0.03,,,0.09,weatherlink.com 1.10,2013-05-04 10:09:00,
2013-05-04 05:24:00,34.5,33.0,29.82,NW,310,0.0,4.0,95,0.02,,,0.09,weatherlink.com 1.10,2013-05-04 10:24:00,
2013-05-04 05:39:00,34.7,34.0,29.81,North,6,0.0,5.0,95,0.01,,,0.09,weatherlink.com 1.10,2013-05-04 10:39:00,
2013-05-04 05:54:00,34.7,34.0,29.81,NNE,12,0.0,4.0,95,0.02,,,0.10,weatherlink.com 1.10,2013-05-04 10:54:00,
2013-05-04 06:09:00,34.7,34.0,29.82,WNW,300,1.0,6.0,95,0.01,,,0.10,weatherlink.com 1.10,2013-05-04 11:09:00,
2013-05-04 06:25:00,34.8,34.0,29.82,North,352,1.0,5.0,95,0.01,,,0.10,weatherlink.com 1.10,2013-05-04 11:25:00,
2013-05-04 06:40:00,35.0,34.0,29.82,NNE,25,0.0,4.0,95,0.02,,,0.11,weatherlink.com 1.10,2013-05-04 11:40:00,
2013-05-04 06:55:00,35.1,34.0,29.83,West,271,2.0,6.0,95,0.01,,,0.11,weatherlink.com 1.10,2013-05-04 11:55:00,
2013-05-04 07:10:00,35.3,34.0,29.83,WNW,294,0.0,6.0,95,0.01,,,0.11,weatherlink.com 1.10,2013-05-04 12:10:00,
2013-05-04 07:25:00,35.4,34.0,29.83,West,281,3.0,10.0,95,0.01,,,0.11,weatherlink.com 1.10,2013-05-04 12:25:00,
2013-05-04 07:40:00,35.6,34.0,29.83,WNW,300,0.0,7.0,95,0.00,,,0.11,weatherlink.com 1.10,2013-05-04 12:40:00,
2013-05-04 07:55:00,36.0,35.0,29.84,WNW,288,1.0,4.0,95,0.01,,,0.12,weatherlink.com 1.10,2013-05-04 12:55:00,
2013-05-04 08:10:00,36.3,35.0,29.84,WNW,302,2.0,5.0,95,0.01,,,0.12,weatherlink.com 1.10,2013-05-04 13:10:00,
2013-05-04 08:25:00,36.7,36.0,29.84,WNW,297,1.0,2.0,96,0.01,,,0.12,weatherlink.com 1.10,2013-05-04 13:25:00,
2013-05-04 08:40:00,37.0,36.0,29.84,NNE,32,0.0,2.0,96,0.01,,,0.12,weatherlink.com 1.10,2013-05-04 13:40:00,
2013-05-04 08:55:00,37.4,36.0,29.85,North,6,0.0,4.0,96,0.00,,,0.12,weatherlink.com 1.10,2013-05-04 13:55:00,
2013-05-04 09:10:00,37.7,37.0,29.86,NW,321,0.0,3.0,96,0.01,,,0.13,weatherlink.com 1.10,2013-05-04 14:10:00,
2013-05-04 09:25:00,38.3,37.0,29.86,ENE,61,0.0,2.0,96,0.01,,,0.13,weatherlink.com 1.10,2013-05-04 14:25:00,
2013-05-04 09:40:00,38.5,37.0,29.87,NNE,32,0.0,5.0,95,0.01,,,0.13,weatherlink.com 1.10,2013-05-04 14:40:00,
2013-05-04 09:55:00,38.9,38.0,29.88,NE,40,0.0,3.0,95,0.01,,,0.13,weatherlink.com 1.10,2013-05-04 14:55:00,
2013-05-04 10:10:00,39.2,38.0,29.88,North,1,0.0,4.0,95,0.00,,,0.13,weatherlink.com 1.10,2013-05-04 15:10:00,
2013-05-04 10:25:00,40.0,39.0,29.89,North,350,0.0,1.0,95,0.00,,,0.13,weatherlink.com 1.10,2013-05-04 15:25:00,
2013-05-04 10:40:00,40.1,39.0,29.89,NNW,342,1.0,3.0,94,0.00,,,0.13,weatherlink.com 1.10,2013-05-04 15:40:00,
2013-05-04 10:55:00,40.6,39.0,29.89,WNW,300,2.0,4.0,94,0.00,,,0.13,weatherlink.com 1.10,2013-05-04 15:55:00,
2013-05-04 11:10:00,41.3,40.0,29.89,NNE,27,0.0,3.0,93,0.00,,,0.13,weatherlink.com 1.10,2013-05-04 16:10:00,
2013-05-04 11:25:00,41.8,40.0,29.89,North,356,2.0,4.0,93,0.00,,,0.13,weatherlink.com 1.10,2013-05-04 16:25:00,
2013-05-04 11:40:00,42.2,40.0,29.90,North,8,1.0,3.0,91,0.01,,,0.14,weatherlink.com 1.10,2013-05-04 16:40:00,
2013-05-04 11:55:00,42.5,40.0,29.90,NE,40,1.0,4.0,91,0.01,,,0.14,weatherlink.com 1.10,2013-05-04 16:55:00,
2013-05-04 12:10:00,42.5,40.0,29.90,NE,34,0.0,5.0,91,0.01,,,0.14,weatherlink.com 1.10,2013-05-04 17:10:00,
2013-05-04 12:25:00,42.3,40.0,29.91,North,6,0.0,2.0,91,0.01,,,0.14,weatherlink.com 1.10,2013-05-04 17:25:00,
2013-05-04 12:40:00,43.3,40.0,29.91,ESE,113,0.0,3.0,89,0.00,,,0.14,weatherlink.com 1.10,2013-05-04 17:40:00,
2013-05-04 12:55:00,43.4,40.0,29.91,NW,326,0.0,7.0,86,0.00,,,0.14,weatherlink.com 1.10,2013-05-04 17:55:00,
2013-05-04 13:10:00,43.4,40.0,29.91,ENE,61,4.0,5.0,86,0.00,,,0.14,weatherlink.com 1.10,2013-05-04 18:10:00,
2013-05-04 13:25:00,44.0,39.0,29.91,NE,34,0.0,6.0,83,0.00,,,0.14,weatherlink.com 1.10,2013-05-04 18:25:00,
2013-05-04 13:40:00,44.9,40.0,29.92,NNE,25,0.0,4.0,82,0.00,,,0.14,weatherlink.com 1.10,2013-05-04 18:40:00,
2013-05-04 13:55:00,45.9,40.0,29.92,NNE,18,8.0,8.0,79,0.00,,,0.14,weatherlink.com 1.10,2013-05-04 18:55:00,
2013-05-04 14:10:00,46.1,40.0,29.92,East,82,2.0,5.0,80,0.00,,,0.14,weatherlink.com 1.10,2013-05-04 19:10:00,
2013-05-04 14:26:00,46.6,40.0,29.92,ENE,71,0.0,4.0,78,0.00,,,0.14,weatherlink.com 1.10,2013-05-04 19:26:00,
2013-05-04 14:41:00,47.2,40.0,29.93,NE,47,0.0,3.0,77,0.00,,,0.14,weatherlink.com 1.10,2013-05-04 19:41:00,
2013-05-04 14:56:00,47.4,41.0,29.93,East,90,0.0,7.0,77,0.00,,,0.14,weatherlink.com 1.10,2013-05-04 19:56:00,
2013-05-04 15:11:00,47.5,40.0,29.93,NE,54,0.0,7.0,74,0.00,,,0.14,weatherlink.com 1.10,2013-05-04 20:11:00,
2013-05-04 15:26:00,47.6,40.0,29.93,East,96,0.0,3.0,76,0.00,,,0.14,weatherlink.com 1.10,2013-05-04 20:26:00,
2013-05-04 15:41:00,47.6,40.0,29.93,North,352,0.0,3.0,75,0.00,,,0.14,weatherlink.com 1.10,2013-05-04 20:41:00,
2013-05-04 15:56:00,47.4,40.0,29.93,ESE,109,0.0,4.0,76,0.00,,,0.14,weatherlink.com 1.10,2013-05-04 20:56:00,
2013-05-04 16:11:00,47.7,40.0,29.94,WNW,294,2.0,3.0,75,0.00,,,0.14,weatherlink.com 1.10,2013-05-04 21:11:00,
2013-05-04 16:26:00,47.5,40.0,29.94,NNE,19,0.0,7.0,75,0.00,,,0.14,weatherlink.com 1.10,2013-05-04 21:26:00,
2013-05-04 16:41:00,47.6,40.0,29.94,ESE,105,0.0,5.0,75,0.00,,,0.14,weatherlink.com 1.10,2013-05-04 21:41:00,
2013-05-04 16:56:00,48.5,41.0,29.94,NW,305,0.0,3.0,75,0.00,,,0.14,weatherlink.com 1.10,2013-05-04 21:56:00,
2013-05-04 17:11:00,48.1,41.0,29.95,East,89,1.0,2.0,76,0.00,,,0.14,weatherlink.com 1.10,2013-05-04 22:11:00,
2013-05-04 17:26:00,48.2,41.0,29.95,SSW,196,0.0,1.0,75,0.00,,,0.14,weatherlink.com 1.10,2013-05-04 22:26:00,
2013-05-04 17:41:00,48.0,41.0,29.96,NE,56,0.0,1.0,76,0.00,,,0.14,weatherlink.com 1.10,2013-05-04 22:41:00,
2013-05-04 17:56:00,48.0,41.0,29.96,East,79,0.0,4.0,76,0.00,,,0.14,weatherlink.com 1.10,2013-05-04 22:56:00,
2013-05-04 18:11:00,47.9,41.0,29.97,ESE,107,0.0,3.0,76,0.00,,,0.14,weatherlink.com 1.10,2013-05-04 23:11:00,
2013-05-04 18:26:00,47.6,40.0,29.97,East,91,0.0,4.0,76,0.00,,,0.14,weatherlink.com 1.10,2013-05-04 23:26:00,
2013-05-04 18:41:00,47.3,40.0,29.97,SSW,198,0.0,2.0,76,0.00,,,0.14,weatherlink.com 1.10,2013-05-04 23:41:00,
2013-05-04 18:56:00,47.1,40.0,29.97,NNE,30,0.0,2.0,77,0.00,,,0.14,weatherlink.com 1.10,2013-05-04 23:56:00,
2013-05-04 19:11:00,46.8,40.0,29.97,NE,37,0.0,1.0,78,0.00,,,0.14,weatherlink.com 1.10,2013-05-05 00:11:00,
2013-05-04 19:26:00,46.8,41.0,29.97,North,359,0.0,0.0,80,0.00,,,0.14,weatherlink.com 1.10,2013-05-05 00:26:00,
2013-05-04 19:41:00,46.3,41.0,29.98,North,360,0.0,0.0,81,0.00,,,0.14,weatherlink.com 1.10,2013-05-05 00:41:00,
2013-05-04 19:56:00,45.9,41.0,29.98,North,359,0.0,0.0,83,0.00,,,0.14,weatherlink.com 1.10,2013-05-05 00:56:00,
2013-05-04 20:11:00,45.7,42.0,29.99,North,360,0.0,0.0,85,0.00,,,0.14,weatherlink.com 1.10,2013-05-05 01:11:00,
2013-05-04 20:26:00,45.5,41.0,29.98,North,358,0.0,0.0,85,0.00,,,0.14,weatherlink.com 1.10,2013-05-05 01:26:00,
2013-05-04 20:41:00,45.4,42.0,29.98,North,359,0.0,0.0,86,0.00,,,0.14,weatherlink.com 1.10,2013-05-05 01:41:00,
2013-05-04 20:56:00,45.2,41.0,29.98,SE,143,0.0,0.0,85,0.00,,,0.14,weatherlink.com 1.10,2013-05-05 01:56:00,
2013-05-04 21:11:00,45.1,41.0,29.98,SE,143,0.0,0.0,86,0.00,,,0.14,weatherlink.com 1.10,2013-05-05 02:11:00,
2013-05-04 21:26:00,45.0,41.0,29.99,SSW,212,0.0,1.0,87,0.00,,,0.14,weatherlink.com 1.10,2013-05-05 02:26:00,
2013-05-04 21:41:00,44.9,42.0,30.00,SSW,212,0.0,1.0,88,0.00,,,0.14,weatherlink.com 1.10,2013-05-05 02:41:00,
2013-05-04 21:56:00,44.8,42.0,30.00,SSW,203,0.0,1.0,88,0.00,,,0.14,weatherlink.com 1.10,2013-05-05 02:56:00,
2013-05-04 22:11:00,44.9,42.0,30.00,SSW,203,0.0,0.0,88,0.00,,,0.14,weatherlink.com 1.10,2013-05-05 03:11:00,
2013-05-04 22:26:00,44.9,42.0,30.00,SSW,202,0.0,0.0,88,0.00,,,0.14,weatherlink.com 1.10,2013-05-05 03:26:00,
2013-05-04 22:41:00,44.9,42.0,30.00,SSW,202,0.0,0.0,89,0.00,,,0.14,weatherlink.com 1.10,2013-05-05 03:41:00,
2013-05-04 22:56:00,44.9,42.0,30.00,SSW,201,0.0,0.0,90,0.00,,,0.14,weatherlink.com 1.10,2013-05-05 03:56:00,
2013-05-04 23:11:00,44.9,43.0,29.99,WNW,293,0.0,0.0,92,0.00,,,0.14,weatherlink.com 1.10,2013-05-05 04:11:00,
2013-05-04 23:26:00,44.9,43.0,29.99,WNW,293,0.0,0.0,93,0.00,,,0.14,weatherlink.com 1.10,2013-05-05 04:26:00,
2013-05-04 23:41:00,44.8,43.0,29.99,WNW,293,0.0,0.0,93,0.00,,,0.14,weatherlink.com 1.10,2013-05-05 04:41:00,
2013-05-04 23:56:00,44.9,43.0,30.00,WNW,293,0.0,0.0,94,0.00,,,0.14,weatherlink.com 1.10,2013-05-05 04:56:00,